createdAt,value
2023-05-20T00:01:25.601Z,9.57
2023-05-20T00:03:52.178Z,8.65
2023-05-20T00:06:19.328Z,8.77
2023-05-20T00:08:45.683Z,11.00
2023-05-20T00:11:12.007Z,10.13
2023-05-20T00:13:38.470Z,9.15
2023-05-20T00:16:05.378Z,9.73
2023-05-20T00:18:32.085Z,9.05
2023-05-20T00:20:58.554Z,8.82
2023-05-20T00:23:25.522Z,8.73
2023-05-20T00:25:51.913Z,9.13
2023-05-20T00:28:19.044Z,8.60
2023-05-20T00:30:45.423Z,9.90
2023-05-20T00:33:12.031Z,11.48
2023-05-20T00:35:38.418Z,9.63
2023-05-20T00:38:05.116Z,9.38
2023-05-20T00:40:32.149Z,9.68
2023-05-20T00:42:58.484Z,12.10
2023-05-20T00:45:25.372Z,8.38
2023-05-20T00:47:52.112Z,11.88
2023-05-20T00:50:18.787Z,8.73
2023-05-20T00:52:47.440Z,9.45
2023-05-20T00:55:13.882Z,9.32
2023-05-20T00:57:41.012Z,9.82
2023-05-20T01:00:10.087Z,10.05
2023-05-20T01:02:36.487Z,9.63
2023-05-20T01:05:03.096Z,9.05
2023-05-20T01:07:29.516Z,10.38
2023-05-20T01:09:55.968Z,10.18
2023-05-20T01:12:25.717Z,9.80
2023-05-20T01:14:59.732Z,9.20
2023-05-20T01:17:27.438Z,10.23
2023-05-20T01:19:55.439Z,9.98
2023-05-20T01:22:24.627Z,11.20
2023-05-20T01:24:52.758Z,12.07
2023-05-20T01:27:21.746Z,10.93
2023-05-20T01:29:50.136Z,10.32
2023-05-20T01:32:20.101Z,12.63
2023-05-20T01:34:48.345Z,10.50
2023-05-20T01:37:15.136Z,11.43
2023-05-20T01:39:42.696Z,11.63
2023-05-20T01:42:10.138Z,11.32
2023-05-20T01:44:36.971Z,10.65
2023-05-20T01:47:03.851Z,13.35
2023-05-20T01:49:30.263Z,11.93
2023-05-20T01:51:57.101Z,13.18
2023-05-20T01:54:23.411Z,12.02
2023-05-20T01:56:50.628Z,12.27
2023-05-20T01:59:16.982Z,14.10
2023-05-20T02:01:43.613Z,11.63
2023-05-20T02:04:09.966Z,12.73
2023-05-20T02:06:36.426Z,13.73
2023-05-20T02:09:02.998Z,13.60
2023-05-20T02:11:29.361Z,12.70
2023-05-20T02:13:56.362Z,13.77
2023-05-20T02:16:22.848Z,13.65
2023-05-20T02:18:50.838Z,14.90
2023-05-20T02:21:17.209Z,16.52
2023-05-20T02:23:55.978Z,16.92
2023-05-20T02:26:22.320Z,16.63
2023-05-20T02:28:49.913Z,16.50
2023-05-20T02:31:17.280Z,18.10
2023-05-20T02:33:44.066Z,14.63
2023-05-20T02:36:10.473Z,16.25
2023-05-20T02:38:36.836Z,16.50
2023-05-20T02:41:03.822Z,14.25
2023-05-20T02:43:31.080Z,15.88
2023-05-20T02:45:57.461Z,15.40
2023-05-20T02:48:24.791Z,17.02
2023-05-20T02:50:51.128Z,20.50
2023-05-20T02:53:17.454Z,16.73
2023-05-20T02:55:46.620Z,18.42
2023-05-20T02:58:13.071Z,16.20
2023-05-20T03:00:40.076Z,16.27
2023-05-20T03:03:07.170Z,16.55
2023-05-20T03:05:36.948Z,18.67
2023-05-20T03:08:04.163Z,19.15
2023-05-20T03:10:30.531Z,19.88
2023-05-20T03:12:56.845Z,19.55
2023-05-20T03:15:23.197Z,22.85
2023-05-20T03:17:49.488Z,25.52
2023-05-20T03:20:16.950Z,21.98
2023-05-20T03:22:43.959Z,23.35
2023-05-20T03:25:10.420Z,23.52
2023-05-20T03:27:37.343Z,26.50
2023-05-20T03:30:04.625Z,32.58
2023-05-20T03:32:30.968Z,25.77
2023-05-20T03:34:59.321Z,31.40
2023-05-20T03:37:25.717Z,32.72
2023-05-20T03:39:52.734Z,29.48
2023-05-20T03:42:19.064Z,31.08
2023-05-20T03:44:45.407Z,29.58
2023-05-20T03:47:11.758Z,28.63
2023-05-20T03:49:39.673Z,29.85
2023-05-20T03:52:06.385Z,30.42
2023-05-20T03:54:32.888Z,32.40
2023-05-20T03:57:00.234Z,33.15
2023-05-20T03:59:26.807Z,34.83
2023-05-20T04:01:53.395Z,39.95
2023-05-20T04:04:19.993Z,33.22
2023-05-20T04:06:46.464Z,33.05
2023-05-20T04:09:12.948Z,39.60
2023-05-20T04:11:39.341Z,34.63
2023-05-20T04:14:06.658Z,37.35
2023-05-20T04:16:33.019Z,43.60
2023-05-20T04:19:00.265Z,41.55
2023-05-20T04:21:26.638Z,37.85
2023-05-20T04:23:52.982Z,34.55
2023-05-20T04:26:19.982Z,33.75
2023-05-20T04:28:48.036Z,40.33
2023-05-20T04:31:15.216Z,33.30
2023-05-20T04:33:41.895Z,36.58
2023-05-20T04:36:11.360Z,32.75
2023-05-20T04:38:37.834Z,32.05
2023-05-20T04:41:04.449Z,37.28
2023-05-20T04:43:31.005Z,36.08
2023-05-20T04:45:57.867Z,37.60
2023-05-20T04:48:25.117Z,43.63
2023-05-20T04:50:51.748Z,35.22
2023-05-20T04:53:18.374Z,31.95
2023-05-20T04:55:45.401Z,31.55
2023-05-20T04:58:15.039Z,33.72
2023-05-20T05:00:41.592Z,29.38
2023-05-20T05:03:08.312Z,35.13
2023-05-20T05:05:36.030Z,34.55
2023-05-20T05:08:02.607Z,30.08
2023-05-20T05:10:29.239Z,32.38
2023-05-20T05:12:55.594Z,31.83
2023-05-20T05:15:21.917Z,33.78
2023-05-20T05:17:48.287Z,32.50
2023-05-20T05:20:17.320Z,30.98
2023-05-20T05:22:46.666Z,32.90
2023-05-20T05:25:13.257Z,34.70
2023-05-20T05:27:39.818Z,32.85
2023-05-20T05:30:07.301Z,32.90
2023-05-20T05:32:34.368Z,34.05
2023-05-20T05:35:05.058Z,36.00
2023-05-20T05:37:32.445Z,34.97
2023-05-20T05:39:59.420Z,30.70
2023-05-20T05:42:25.901Z,33.30
2023-05-20T05:44:52.212Z,33.30
2023-05-20T05:47:18.818Z,29.42
2023-05-20T05:49:45.391Z,29.13
2023-05-20T05:52:11.748Z,32.95
2023-05-20T05:54:38.072Z,29.80
2023-05-20T05:57:07.000Z,32.00
2023-05-20T05:59:33.368Z,30.08
2023-05-20T06:01:59.850Z,28.42
2023-05-20T06:04:26.371Z,31.10
2023-05-20T06:06:52.831Z,29.88
2023-05-20T06:09:19.240Z,25.35
2023-05-20T06:11:45.630Z,27.83
2023-05-20T06:14:12.616Z,25.13
2023-05-20T06:16:38.978Z,27.48
2023-05-20T06:19:05.402Z,28.75
2023-05-20T06:21:32.245Z,28.02
2023-05-20T06:23:58.639Z,28.08
2023-05-20T06:26:25.456Z,25.65
2023-05-20T06:28:52.566Z,28.20
2023-05-20T06:31:19.702Z,24.17
2023-05-20T06:33:46.135Z,29.33
2023-05-20T06:36:12.686Z,31.25
2023-05-20T06:38:39.058Z,28.83
2023-05-20T06:41:05.554Z,28.48
2023-05-20T06:43:32.550Z,29.17
2023-05-20T06:45:58.949Z,26.10
2023-05-20T06:48:25.979Z,29.10
2023-05-20T06:50:52.413Z,25.80
2023-05-20T06:53:23.467Z,28.40
2023-05-20T06:55:49.843Z,26.42
2023-05-20T06:58:16.180Z,23.10
2023-05-20T07:00:42.656Z,25.38
2023-05-20T07:03:10.901Z,23.42
2023-05-20T07:05:37.924Z,24.63
2023-05-20T07:08:04.738Z,23.70
2023-05-20T07:10:31.113Z,23.20
2023-05-20T07:12:57.474Z,22.25
2023-05-20T07:15:23.805Z,22.90
2023-05-20T07:17:50.183Z,22.55
2023-05-20T07:20:16.864Z,22.52
2023-05-20T07:22:43.872Z,22.17
2023-05-20T07:25:10.481Z,23.05
2023-05-20T07:27:37.007Z,25.88
2023-05-20T07:30:03.988Z,29.10
2023-05-20T07:32:30.445Z,25.27
2023-05-20T07:34:56.788Z,36.60
2023-05-20T07:37:23.118Z,28.83
2023-05-20T07:39:50.162Z,29.23
2023-05-20T07:42:16.505Z,25.92
2023-05-20T07:44:43.237Z,26.70
2023-05-20T07:47:09.666Z,24.20
2023-05-20T07:49:36.018Z,24.92
2023-05-20T07:52:03.103Z,26.30
2023-05-20T07:54:29.785Z,27.65
2023-05-20T07:56:56.751Z,23.38
2023-05-20T07:59:23.840Z,24.88
2023-05-20T08:01:50.203Z,21.50
2023-05-20T08:04:24.810Z,25.30
2023-05-20T08:06:54.467Z,23.93
2023-05-20T08:09:20.993Z,23.80
2023-05-20T08:11:47.678Z,24.98
2023-05-20T08:14:15.015Z,22.30
2023-05-20T08:16:42.109Z,19.83
2023-05-20T08:19:17.822Z,19.13
2023-05-20T08:21:47.081Z,19.33
2023-05-20T08:24:13.425Z,18.58
2023-05-20T08:26:39.807Z,20.17
2023-05-20T08:29:07.636Z,18.73
2023-05-20T08:31:34.785Z,17.85
2023-05-20T08:34:01.289Z,18.05
2023-05-20T08:36:27.707Z,17.77
2023-05-20T08:38:55.082Z,18.65
2023-05-20T08:41:22.024Z,19.02
2023-05-20T08:43:52.581Z,18.13
2023-05-20T08:46:19.802Z,17.33
2023-05-20T08:48:48.280Z,16.73
2023-05-20T08:51:17.332Z,14.40
2023-05-20T08:53:43.956Z,12.73
2023-05-20T08:56:11.745Z,11.98
2023-05-20T08:58:38.123Z,12.02
2023-05-20T09:01:05.516Z,12.05
2023-05-20T09:03:32.962Z,15.82
2023-05-20T09:06:04.461Z,12.45
2023-05-20T09:08:31.273Z,13.60
2023-05-20T09:11:00.367Z,14.32
2023-05-20T09:13:27.323Z,13.48
2023-05-20T09:15:59.650Z,9.73
2023-05-20T09:18:26.315Z,10.55
2023-05-20T09:20:53.935Z,10.93
2023-05-20T09:23:24.964Z,8.43
2023-05-20T09:25:52.279Z,9.35
2023-05-20T09:28:24.285Z,10.85
2023-05-20T09:30:50.986Z,8.02
2023-05-20T09:33:17.664Z,7.60
2023-05-20T09:35:44.079Z,8.23
2023-05-20T09:38:11.918Z,8.73
2023-05-20T09:40:41.488Z,7.50
2023-05-20T09:43:08.314Z,9.63
2023-05-20T09:45:35.432Z,8.25
2023-05-20T09:48:06.636Z,7.60
2023-05-20T09:50:37.203Z,6.20
2023-05-20T09:53:04.390Z,5.82
2023-05-20T09:55:31.467Z,9.10
2023-05-20T09:58:02.418Z,6.40
2023-05-20T10:00:31.114Z,7.32
2023-05-20T10:03:00.586Z,7.57
2023-05-20T10:05:35.493Z,6.32
2023-05-20T10:08:29.000Z,9.52
2023-05-20T10:11:06.494Z,5.35
2023-05-20T10:13:51.162Z,5.95
2023-05-20T10:16:29.355Z,9.10
2023-05-20T10:19:07.100Z,6.47
2023-05-20T10:21:33.492Z,5.43
2023-05-20T10:24:06.654Z,12.60
2023-05-20T10:26:35.837Z,5.47
2023-05-20T10:29:14.518Z,5.25
2023-05-20T10:31:45.057Z,5.32
2023-05-20T10:34:14.955Z,5.55
2023-05-20T10:36:45.808Z,5.45
2023-05-20T10:39:16.493Z,10.73
2023-05-20T10:41:42.986Z,4.10
2023-05-20T10:44:09.988Z,6.70
2023-05-20T10:46:48.770Z,3.78
2023-05-20T10:49:26.930Z,3.60
2023-05-20T10:51:54.867Z,4.43
2023-05-20T10:54:22.122Z,4.82
2023-05-20T10:56:52.233Z,5.18
2023-05-20T10:59:19.418Z,4.82
2023-05-20T11:01:46.327Z,3.53
2023-05-20T11:04:13.684Z,3.10
2023-05-20T11:06:50.451Z,4.13
2023-05-20T11:09:16.874Z,3.92
2023-05-20T11:11:43.306Z,4.03
2023-05-20T11:14:12.939Z,4.22
2023-05-20T11:16:40.334Z,3.85
2023-05-20T11:19:07.791Z,6.25
2023-05-20T11:21:34.188Z,5.28
2023-05-20T11:24:00.580Z,6.82
2023-05-20T11:26:29.036Z,3.75
2023-05-20T11:28:56.421Z,4.10
2023-05-20T11:31:23.845Z,4.88
2023-05-20T11:33:52.123Z,3.40
2023-05-20T11:36:27.397Z,3.83
2023-05-20T11:38:54.639Z,3.95
2023-05-20T11:41:23.949Z,3.63
2023-05-20T11:43:56.555Z,3.50
2023-05-20T11:46:23.159Z,3.03
2023-05-20T11:48:53.391Z,3.75
2023-05-20T11:51:24.043Z,3.88
2023-05-20T11:53:50.399Z,3.42
2023-05-20T11:56:16.789Z,3.70
2023-05-20T11:58:44.181Z,5.20
2023-05-20T12:01:21.557Z,4.35
2023-05-20T12:03:49.210Z,3.17
2023-05-20T12:06:17.256Z,3.50
2023-05-20T12:08:43.620Z,3.60
2023-05-20T12:11:12.279Z,4.07
2023-05-20T12:13:40.105Z,3.88
2023-05-20T12:16:06.525Z,3.65
2023-05-20T12:18:33.026Z,4.28
2023-05-20T12:20:59.653Z,3.17
2023-05-20T12:23:28.658Z,3.70
2023-05-20T12:25:54.980Z,5.05
2023-05-20T12:28:21.357Z,4.05
2023-05-20T12:30:47.719Z,6.03
2023-05-20T12:33:14.153Z,3.70
2023-05-20T12:35:43.832Z,6.30
2023-05-20T12:38:10.528Z,4.93
2023-05-20T12:40:38.098Z,4.90
2023-05-20T12:43:05.489Z,4.57
2023-05-20T12:45:31.897Z,4.35
2023-05-20T12:47:58.733Z,4.22
2023-05-20T12:50:25.119Z,4.43
2023-05-20T12:52:51.457Z,6.57
2023-05-20T12:55:17.807Z,5.10
2023-05-20T12:57:45.931Z,8.88
2023-05-20T13:00:13.356Z,4.50
2023-05-20T13:02:42.468Z,5.15
2023-05-20T13:05:10.687Z,6.93
2023-05-20T13:07:37.267Z,7.00
2023-05-20T13:10:04.471Z,5.68
2023-05-20T13:12:30.881Z,8.23
2023-05-20T13:14:59.717Z,6.80
2023-05-20T13:17:27.006Z,7.85
2023-05-20T13:19:54.058Z,7.03
2023-05-20T13:22:20.393Z,7.80
2023-05-20T13:24:46.832Z,9.82
2023-05-20T13:27:13.256Z,8.70
2023-05-20T13:29:39.618Z,7.75
2023-05-20T13:32:07.263Z,7.30
2023-05-20T13:34:33.567Z,7.90
2023-05-20T13:37:00.034Z,8.25
2023-05-20T13:39:26.706Z,8.32
2023-05-20T13:41:54.272Z,7.18
2023-05-20T13:44:20.684Z,9.18
2023-05-20T13:46:47.127Z,8.95
2023-05-20T13:49:14.219Z,12.30
2023-05-20T13:51:40.562Z,8.05
2023-05-20T13:54:06.902Z,8.45
2023-05-20T13:56:33.864Z,8.35
2023-05-20T13:59:00.392Z,10.13
2023-05-20T14:01:27.669Z,8.27
2023-05-20T14:03:54.091Z,7.65
2023-05-20T14:06:21.109Z,8.52
2023-05-20T14:08:47.587Z,8.75
2023-05-20T14:11:13.931Z,9.30
2023-05-20T14:13:40.856Z,8.00
2023-05-20T14:16:07.447Z,7.43
2023-05-20T14:18:33.846Z,8.45
2023-05-20T14:21:00.340Z,12.18
2023-05-20T14:23:27.355Z,8.52
2023-05-20T14:25:53.906Z,9.65
2023-05-20T14:28:20.268Z,10.25
2023-05-20T14:30:46.686Z,9.07
2023-05-20T14:33:13.067Z,8.02
2023-05-20T14:35:39.478Z,9.20
2023-05-20T14:38:06.146Z,10.25
2023-05-20T14:40:33.295Z,10.38
2023-05-20T14:42:59.755Z,9.02
2023-05-20T14:45:26.140Z,13.77
2023-05-20T14:47:52.519Z,9.50
2023-05-20T14:50:18.924Z,10.10
2023-05-20T14:52:45.505Z,11.48
2023-05-20T14:55:11.819Z,10.48
2023-05-20T14:57:38.980Z,11.52
2023-05-20T15:00:06.772Z,11.65
2023-05-20T15:02:36.225Z,12.93
2023-05-20T15:05:02.924Z,10.60
2023-05-20T15:07:31.133Z,9.30
2023-05-20T15:09:59.207Z,8.88
2023-05-20T15:12:25.589Z,9.10
2023-05-20T15:14:52.630Z,11.57
2023-05-20T15:17:19.026Z,12.48
2023-05-20T15:19:45.364Z,10.05
2023-05-20T15:22:11.683Z,8.88
2023-05-20T15:24:38.120Z,11.32
2023-05-20T15:27:05.034Z,10.43
2023-05-20T15:29:31.444Z,10.02
2023-05-20T15:31:58.610Z,12.02
2023-05-20T15:34:24.988Z,9.80
2023-05-20T15:36:51.335Z,9.60
2023-05-20T15:39:17.682Z,12.50
2023-05-20T15:41:47.180Z,10.73
2023-05-20T15:44:13.535Z,11.55
2023-05-20T15:46:40.032Z,11.85
2023-05-20T15:49:07.156Z,11.32
2023-05-20T15:51:33.525Z,10.48
2023-05-20T15:53:59.864Z,13.02
2023-05-20T15:56:26.391Z,12.40
2023-05-20T15:58:52.747Z,11.10
2023-05-20T16:01:19.149Z,10.05
2023-05-20T16:03:45.613Z,9.60
2023-05-20T16:06:12.680Z,9.35
2023-05-20T16:08:40.093Z,12.18
2023-05-20T16:11:07.191Z,9.77
2023-05-20T16:13:33.668Z,13.10
2023-05-20T16:16:00.262Z,10.52
2023-05-20T16:18:27.815Z,11.73
2023-05-20T16:20:54.191Z,9.23
2023-05-20T16:23:21.234Z,11.68
2023-05-20T16:25:59.853Z,9.43
2023-05-20T16:28:35.517Z,10.45
2023-05-20T16:31:11.134Z,10.68
2023-05-20T16:37:06.189Z,17.25
2023-05-20T16:39:36.172Z,10.50
2023-05-20T16:42:02.502Z,14.30
2023-05-20T16:44:48.390Z,13.23
2023-05-20T16:49:46.619Z,9.95
2023-05-20T16:53:07.041Z,11.88
2023-05-20T16:58:09.549Z,14.85
2023-05-20T17:00:36.017Z,11.02
2023-05-20T17:03:02.629Z,10.00
2023-05-20T17:05:31.999Z,12.23
2023-05-20T17:07:59.552Z,11.57
2023-05-20T17:10:27.773Z,10.75
2023-05-20T17:12:54.152Z,12.38
2023-05-20T17:15:22.506Z,13.75
2023-05-20T17:17:48.957Z,10.50
2023-05-20T17:20:15.481Z,11.13
2023-05-20T17:22:41.881Z,13.00
2023-05-20T17:25:09.173Z,11.98
2023-05-20T17:27:53.500Z,10.50
2023-05-20T17:30:20.085Z,9.63
2023-05-20T17:32:47.176Z,11.82
2023-05-20T17:35:13.560Z,12.68
2023-05-20T17:37:40.609Z,12.20
2023-05-20T17:40:08.011Z,14.90
2023-05-20T17:42:34.365Z,13.32
2023-05-20T17:45:00.728Z,10.85
2023-05-20T17:47:27.077Z,10.38
2023-05-20T17:49:54.074Z,17.33
2023-05-20T17:52:20.440Z,15.15
2023-05-20T17:54:46.799Z,11.43
2023-05-20T17:57:14.798Z,12.82
2023-05-20T17:59:44.647Z,13.43
2023-05-20T18:02:11.318Z,11.35
2023-05-20T18:04:37.751Z,10.70
2023-05-20T18:07:06.169Z,12.75
2023-05-20T18:09:32.852Z,11.88
2023-05-20T18:11:59.373Z,11.55
2023-05-20T18:14:26.188Z,11.32
2023-05-20T18:16:53.906Z,10.73
2023-05-20T18:19:20.353Z,11.45
2023-05-20T18:21:50.284Z,11.20
2023-05-20T18:24:18.401Z,13.95
2023-05-20T18:26:44.966Z,12.13
2023-05-20T18:29:12.116Z,13.88
2023-05-20T18:31:38.594Z,13.05
2023-05-20T18:34:04.954Z,16.92
2023-05-20T18:36:31.356Z,14.02
2023-05-20T18:38:57.810Z,12.77
2023-05-20T18:41:32.317Z,13.73
2023-05-20T18:44:12.173Z,12.85
2023-05-20T18:46:38.666Z,12.93
2023-05-20T18:49:05.028Z,13.38
2023-05-20T18:51:32.917Z,13.90
2023-05-20T18:53:59.450Z,12.70
2023-05-20T18:56:27.035Z,13.20
2023-05-20T18:58:53.393Z,14.55
2023-05-20T19:01:20.351Z,11.52
2023-05-20T19:03:46.736Z,11.23
2023-05-20T19:06:13.309Z,12.27
2023-05-20T19:08:39.736Z,16.35
2023-05-20T19:11:06.148Z,13.60
2023-05-20T19:13:33.604Z,13.35
2023-05-20T19:16:02.585Z,12.50
2023-05-20T19:18:28.915Z,14.38
2023-05-20T19:20:55.294Z,12.98
2023-05-20T19:23:21.940Z,17.45
2023-05-20T19:25:48.354Z,12.90
2023-05-20T19:28:14.874Z,13.52
2023-05-20T19:30:41.909Z,13.80
2023-05-20T19:33:10.533Z,14.07
2023-05-20T19:35:37.128Z,17.00
2023-05-20T19:38:05.087Z,18.10
2023-05-20T19:40:31.439Z,13.30
2023-05-20T19:42:57.859Z,14.60
2023-05-20T19:45:26.370Z,15.27
2023-05-20T19:47:53.456Z,14.23
2023-05-20T19:50:20.081Z,16.23
2023-05-20T19:52:46.440Z,16.73
2023-05-20T19:55:13.076Z,15.63
2023-05-20T19:57:39.453Z,16.70
2023-05-20T20:00:07.677Z,15.63
2023-05-20T20:02:34.111Z,16.90
2023-05-20T20:05:01.254Z,15.38
2023-05-20T20:07:28.065Z,13.98
2023-05-20T20:09:54.543Z,15.48
2023-05-20T20:12:22.884Z,17.67
2023-05-20T20:14:49.215Z,16.10
2023-05-20T20:17:16.690Z,14.32
2023-05-20T20:19:45.371Z,14.68
2023-05-20T20:22:12.385Z,18.85
2023-05-20T20:24:41.223Z,17.75
2023-05-20T20:27:07.611Z,17.90
2023-05-20T20:29:34.017Z,14.07
2023-05-20T20:32:01.514Z,14.95
2023-05-20T20:34:27.830Z,14.80
2023-05-20T20:36:54.555Z,17.52
2023-05-20T20:39:26.942Z,17.17
2023-05-20T20:41:53.847Z,14.63
2023-05-20T20:44:20.297Z,16.38
2023-05-20T20:46:50.366Z,16.35
2023-05-20T20:49:17.163Z,16.45
2023-05-20T20:51:43.709Z,16.35
2023-05-20T20:54:10.039Z,15.10
2023-05-20T20:56:37.074Z,18.05
2023-05-20T20:59:03.556Z,16.13
2023-05-20T21:01:29.989Z,16.05
2023-05-20T21:03:57.902Z,16.92
2023-05-20T21:06:24.250Z,16.75
2023-05-20T21:08:52.327Z,14.07
2023-05-20T21:11:18.705Z,18.40
2023-05-20T21:13:45.703Z,18.17
2023-05-20T21:16:12.158Z,16.10
2023-05-20T21:18:38.525Z,18.95
2023-05-20T21:21:09.243Z,36.78
2023-05-20T21:23:35.562Z,31.13
2023-05-20T21:26:01.912Z,22.92
2023-05-20T21:28:31.398Z,16.50
2023-05-20T21:30:58.396Z,16.40
2023-05-20T21:33:24.812Z,16.25
2023-05-20T21:35:51.170Z,17.42
2023-05-20T21:38:17.526Z,16.85
2023-05-20T21:40:43.874Z,16.83
2023-05-20T21:43:10.309Z,21.45
2023-05-20T21:45:36.864Z,15.88
2023-05-20T21:48:04.730Z,17.80
2023-05-20T21:50:31.132Z,16.00
2023-05-20T21:52:57.582Z,16.38
2023-05-20T21:55:23.957Z,18.88
2023-05-20T21:57:50.482Z,18.42
2023-05-20T22:00:18.230Z,16.75
2023-05-20T22:02:44.855Z,15.68
2023-05-20T22:05:11.977Z,18.65
2023-05-20T22:07:40.690Z,18.63
2023-05-20T22:10:08.443Z,18.20
2023-05-20T22:12:37.290Z,18.73
2023-05-20T22:15:04.492Z,22.13
2023-05-20T22:17:33.151Z,17.73
2023-05-20T22:19:59.665Z,21.08
2023-05-20T22:22:26.728Z,20.83
2023-05-20T22:24:53.239Z,17.55
2023-05-20T22:27:20.560Z,18.05
2023-05-20T22:29:46.902Z,19.55
2023-05-20T22:32:13.280Z,18.48
2023-05-20T22:34:39.592Z,18.55
2023-05-20T22:37:06.319Z,21.52
2023-05-20T22:39:33.312Z,20.52
2023-05-20T22:41:59.785Z,22.40
2023-05-20T22:44:26.158Z,20.63
2023-05-20T22:46:52.515Z,18.48
2023-05-20T22:49:19.034Z,20.30
2023-05-20T23:00:20.274Z,18.95
2023-05-20T23:02:48.957Z,17.92
2023-05-20T23:05:15.559Z,19.92
2023-05-20T23:07:41.913Z,18.23
2023-05-20T23:10:10.754Z,18.45
2023-05-20T23:12:37.125Z,20.55
2023-05-20T23:15:04.843Z,19.30
2023-05-20T23:17:31.209Z,17.83
2023-05-20T23:19:57.551Z,18.10
2023-05-20T23:22:23.895Z,19.42
2023-05-20T23:24:50.387Z,18.75
2023-05-20T23:27:16.720Z,17.83
2023-05-20T23:29:43.531Z,18.30
2023-05-20T23:32:11.166Z,17.27
2023-05-20T23:34:37.492Z,19.48
2023-05-20T23:37:04.273Z,20.70
2023-05-20T23:39:30.602Z,18.30
2023-05-20T23:41:56.950Z,18.88
2023-05-20T23:44:23.368Z,18.17
2023-05-20T23:46:50.349Z,20.08
2023-05-20T23:49:17.909Z,17.30
2023-05-20T23:51:44.308Z,16.88
2023-05-20T23:54:13.936Z,17.58
2023-05-20T23:56:40.288Z,17.80
2023-05-20T23:59:10.575Z,18.88
